Overton, Nevada Weather observations

Data are for observation ending at time listed.
 Day   Time    Ave.   Ave.  Ave.  Vector   Max.   Stn.    Total    Solar   Ave.  
  of    of     Air    Rel.  Wind   Wind    Wind   Baro.  Precip.   Rad.    Soil  
Year   Day     Temp.  Hum.  Speed  Dir.    Gust   Pres.                    Temp. 
2026   (PST)    F      %     mph   deg.    mph     mb.     in.     W/m2     F   
------------------------------------------------------------------------------
 247   14:00   98.8    10    9.9   169     18.1   964.1    0.00     715    106.7
 247   14:10   99.0     9   10.6   168     22.9   964.1    0.00     690    106.3
 247   14:20   98.6     9   11.2   155     22.0   964.0    0.00     668    105.9
 247   14:30   99.1     9   10.1   166     20.7   964.0    0.00     644    105.8
 247   14:40   98.9    10   10.3   162     17.5   964.0    0.00     615    105.5
 247   14:50   98.9    10   10.0   154     19.9   963.8    0.00     585    105.0
 247   15:00   98.6    10   11.3   170     23.0   963.7    0.00     551    105.0
 247   15:10   98.4    10   12.1   171     24.7   963.7    0.00     518    104.6
 247   15:20   98.7    10    9.4   165     17.0   963.6    0.00     492    104.3
 247   15:30   98.6    11    9.2   169     17.8   963.6    0.00     451    104.0
 247   15:40   98.8    10    9.4   162     19.5   963.5    0.00     427    103.7
 247   15:50   99.3    10    7.6   155     15.1   963.5    0.00     385    103.2
 247   16:00   98.6    10   12.2   167     23.4   963.4    0.00     136    103.0
 247   16:10   98.7    10    9.8   162     22.4   963.5    0.00     117    102.5
 247   16:20   98.3    10    9.0   159     19.0   963.4    0.00     294    102.2
 247   16:30   98.1     9   10.0   160     21.3   963.3    0.00     263    101.7
 247   16:40   98.0     9    9.6   157     18.8   963.3    0.00     230    101.3
 247   16:50   97.7     9   10.1   156     19.1   963.2    0.00     199    100.8
 247   17:00   97.5     8   10.2   159     22.2   963.1    0.00     168    100.4
 247   17:10   97.2     8   10.9   161     18.8   963.1    0.00     104    100.0
 247   17:20   96.9     8   10.5   162     19.4   963.1    0.00      96    99.4
 247   17:30   96.6     8    9.4   165     17.9   963.1    0.00      82    98.8
 247   17:40   96.2     8    9.8   162     21.1   962.9    0.00      48    98.2
 247   17:50   95.9     8    9.4   162     18.2   962.8    0.00      13    97.7
 247   18:00   95.4     8    7.9   161     16.3   962.7    0.00       8    97.1
 247   18:10   95.0     8    6.6   159     13.2   962.7    0.00       4    96.6
 247   18:20   94.6     8    6.3   157     14.5   962.6    0.00       1    96.1
 247   18:30   94.3     8    7.4   159     15.5   962.4    0.00       0    95.6
 247   18:40   94.1     8    6.9   161     13.2   962.3    0.00       0    95.2
 247   18:50   93.7     9    5.5   158     11.4   962.4    0.00       0    94.8
 247   19:00   93.3     9    5.7   160      9.6   962.4    0.00       0    94.4
 247   19:10   93.3     9    6.6   159     12.1   962.5    0.00       0    94.2
 247   19:20   93.0     9    6.2   160     11.2   962.7    0.00       0    93.8
 247   19:30   92.8     9    6.9   162     12.6   962.8    0.00       0    93.6
 247   19:40   92.7     9    6.5   167     11.1   962.8    0.00       0    93.3
 247   19:50   92.6    10    7.5   168     12.6   962.9    0.00       0    93.2
 247   20:00   92.6    10    7.5   168     14.3   962.9    0.00       0    92.9
 247   20:10   92.4     9    6.5   164     11.8   963.0    0.00       0    92.6
 247   20:20   92.6     9    7.2   168     15.1   963.1    0.00       0    92.5
 247   20:30   92.5     9    5.9   165     11.0   963.2    0.00       0    92.2
 247   20:40   91.9     9    4.8   159     11.0   963.3    0.00       0    91.8
 247   20:50   91.7     8    5.1   158     10.5   963.3    0.00       0    91.5
 247   21:00   91.3     8    4.2   156      9.4   963.3    0.00       0    91.2
 247   21:10   90.3     9    5.5   166     11.5   963.3    0.00       0    90.8
 247   21:20   90.2     9    6.1   172     11.7   963.3    0.00       0    90.6
 247   21:30   90.8     8    6.5   166     11.9   963.3    0.00       0    90.6
 247   21:40   90.5     8    6.0   167     11.5   963.3    0.00       0    90.3
 247   21:50   90.6     8    6.6   172     15.1   963.3    0.00       0    90.2
 247   22:00   90.4     8    5.7   170     10.7   963.3    0.00       0    89.9
 247   22:10   89.9     8    4.5   171      8.6   963.3    0.00       0    89.5
 247   22:20   89.7     8    5.0   169      9.2   963.4    0.00       0    89.4
 247   22:30   89.2     8    3.0   164      8.4   963.5    0.00       0    88.9
 247   22:40   83.9    11    2.9    50      5.0   963.6    0.00       0    87.1
 247   22:50   81.9    11    3.9    62      6.7   963.5    0.00       0    86.7
 247   23:00   81.1    11    5.5    71      7.2   963.5    0.00       0    86.1
 247   23:10   79.8    12    3.4    78      5.8   963.4    0.00       0    85.5
 247   23:20   79.0    13    1.3    67      2.8   963.4    0.00       0    84.8
 247   23:30   77.3    15    0.9     3      4.7   963.4    0.00       0    83.9
 247   23:40   75.7    18    1.2    10      4.5   963.4    0.00       0    82.9
 247   23:50   74.4    18    1.3   356      2.6   963.4    0.00       0    82.6
 248    0:00   80.0    12    4.2   179      9.2   963.4    0.00       0    84.1
 248    0:10   87.2     9    6.4   188     11.2   963.5    0.00       0    85.5
 248    0:20   87.5     9    5.7   188      9.7   963.8    0.00       0    85.6
 248    0:30   87.2     9    5.6   185     10.4   964.0    0.00       0    85.6
 248    0:40   86.9    10    5.1   185     10.4   964.1    0.00       0    85.5
 248    0:50   86.5    10    4.8   181      7.7   964.2    0.00       0    85.4
 248    1:00   86.5    10    5.8   179     11.4   964.3    0.00       0    85.6
 248    1:10   87.0    10    6.2   179     11.2   964.3    0.00       0    85.7
 248    1:20   86.6    10    5.4   180      9.9   964.3    0.00       0    85.5
 248    1:30   85.8    10    3.9   180      7.2   964.4    0.00       0    85.2
 248    1:40   84.3    11    2.4   197      5.2   964.4    0.00       0    84.4
 248    1:50   78.4    14    2.7   342      4.1   964.4    0.00       0    82.8
 248    2:00   76.2    15    3.2   332      5.2   964.4    0.00       0    82.0
 248    2:10   73.3    18    2.5   326      3.3   964.2    0.00       0    80.8
 248    2:20   71.4    20    2.6   325      3.2   964.0    0.00       0    80.1
 248    2:30   70.0    21    1.8   336      3.1   963.9    0.00       0    79.3
 248    2:40   69.8    21    2.0   327      3.9   963.9    0.00       0    79.2
 248    2:50   69.7    21    2.0   330      3.2   963.8    0.00       0    78.8
 248    3:00   69.0    21    1.9   322      3.7   963.7    0.00       0    78.4
 248    3:10   70.4    20    1.1   242      2.2   963.7    0.00       0    79.2
 248    3:20   70.2    20    1.4   282      2.7   963.6    0.00       0    77.8
 248    3:30   67.6    25    2.4   353      3.3   963.6    0.00       0    77.1
 248    3:40   66.8    26    2.5   343      4.2   963.6    0.00       0    76.7
 248    3:50   66.0    24    2.0   315      3.8   963.6    0.00       0    76.1
 248    4:00   66.6    24    2.6   299      4.2   963.6    0.00       0    76.2
 248    4:10   68.2    22    2.5   296      3.6   963.7    0.00       0    76.5
 248    4:20   68.1    22    2.0   295      3.4   963.7    0.00       0    76.2
 248    4:30   68.2    21    2.2   296      4.1   963.7    0.00       0    75.9
 248    4:40   66.7    24    1.5   315      3.6   963.8    0.00       0    75.2
 248    4:50   65.4    27    2.4   319      3.5   963.8    0.00       0    74.8
 248    5:00   66.3    23    1.9   297      3.9   963.9    0.00       0    75.5
 248    5:10   67.2    22    1.4   301      2.9   964.0    0.00       2    75.0
 248    5:20   66.5    23    2.6   307      3.5   964.1    0.00       4    74.7
 248    5:30   65.5    26    2.5   311      3.4   964.1    0.00       8    74.3
 248    5:40   65.9    24    2.2   302      3.2   964.3    0.00      21    74.8
 248    5:50   67.3    24    2.9   305      4.2   964.5    0.00      77    77.3
 248    6:00   67.6    24    2.1   297      3.1   964.8    0.00     108    79.9
 248    6:10   70.4    23    1.5   347      2.0   965.1    0.00     139    81.9
 248    6:20   71.7    22    1.5   345      2.4   965.3    0.00     172    83.7
 248    6:30   71.4    22    1.8   314      3.0   965.5    0.00     206    85.1
 248    6:40   73.3    19    0.9   314      2.6   965.7    0.00     240    88.1
 248    6:50   75.1    18    1.3   315      2.3   966.0    0.00     276    89.4
 248    7:00   76.0    17    1.6   322      2.4   966.4    0.00     310    91.0
 248    7:10   78.1    17    2.1   344      3.3   966.6    0.00     345    91.8
 248    7:20   78.8    15    2.0   317      3.2   966.7    0.00     379    93.6
 248    7:30   79.9    15    3.1   320      4.2   967.0    0.00     414    94.2
 248    7:40   81.1    15    2.3   336      4.4   967.2    0.00     448    95.6
 248    7:50   83.2    15    1.5   343      2.9   967.4    0.00     481    97.9
 248    8:00   83.9    14    1.7   353      3.3   967.4    0.00     513    98.8
 248    8:10   85.0    15    1.8    26      3.5   967.6    0.00     544    100.3
 248    8:20   85.6    15    1.8    10      3.5   967.7    0.00     575    100.9
 248    8:30   86.4    15    1.4    68      2.7   967.9    0.00     606    102.8
 248    8:40   86.9    14    2.0   199      3.6   968.0    0.00     636    105.7
 248    8:50   87.8    14    1.1   193      2.8   968.1    0.00     666    106.5
 248    9:00   89.0    14    1.5   108      3.7   968.2    0.00     692    106.8
 248    9:10   90.2    13    1.3   113      3.4   968.2    0.00     717    108.7
 248    9:20   91.6    12    2.7   120      6.3   968.2    0.00     740    108.5
 248    9:30   92.8    11    3.7   130      7.6   968.3    0.00     761    109.9
 248    9:40   93.4    11    3.7   124     11.9   968.3    0.00     782    110.7
 248    9:50   94.0    11    5.9   140     13.1   968.3    0.00     803    110.8
 248   10:00   94.3    11    6.7   135     12.6   968.3    0.00     821    111.1
 248   10:10   94.8    11    4.9   130     12.9   968.3    0.00     839    110.6
 248   10:20   95.6    10    4.6   138     10.2   968.2    0.00     853    110.6
 248   10:30   95.4    11    6.5   149     12.6   968.1    0.00     863    110.5
 248   10:40   95.8    10    4.8   157      8.8   968.1    0.00     874    111.5
 248   10:50   96.1    10    6.8   165     13.2   968.0    0.00     884    112.1
 248   11:00   96.4    10    6.9   175     13.5   967.8    0.00     890    112.8
 248   11:10   97.5    10    4.3   167     11.9   967.7    0.00     896    113.3
 248   11:20   97.5     9    8.4   173     15.1   967.7    0.00     900    113.6
 248   11:30   97.1     9    7.9   190     16.3   967.6    0.00     899    113.5
 248   11:40   97.9     9    5.2   181     11.8   967.4    0.00     895    113.3
 248   11:50   98.8     9    5.8   179     12.7   967.3    0.00     893    114.0
 248   12:00   98.7     9    9.1   214     13.7   967.2    0.00     888    113.3
 248   12:10   99.0     9    8.4   204     13.8   967.1    0.00     880    113.6
 248   12:20   99.2     9    8.3   191     15.1   967.1    0.00     873    113.5
 248   12:30   99.5     9    8.1   186     16.9   967.0    0.00     864    113.0
 248   12:40   99.4     9    7.4   196     18.0   966.8    0.00     854    111.8
 248   12:50   99.9     9    9.3   208     15.9   966.7    0.00     842    110.0
 248   13:00  100.0     9    9.3   203     15.6   966.5    0.00     827    109.6
 248   13:10  100.1     9   10.0   189     19.2   966.4    0.00     811    109.3
 248   13:20  100.3     9    7.8   171     14.5   966.3    0.00     794    109.9
 248   13:30  101.2     9    9.7   194     23.9   966.2    0.00     777    109.7
 248   13:40  100.7     9   11.8   192     22.7   966.2    0.00     755    109.7
 248   13:50  101.0     9    8.7   197     17.6   966.1    0.00     735    109.3

Return to Overton, Nevada graphs page.


Western Regional Climate Center,wrcc@dri.edu